sensor_id;sensor_type;location;lat;lon;timestamp;temperature;humidity
1361;DHT22;674;45.552;-122.600;2023-02-22T00:02:04;6.10;29.40
1361;DHT22;674;45.552;-122.600;2023-02-22T00:04:40;6.20;25.10
1361;DHT22;674;45.552;-122.600;2023-02-22T00:07:09;5.90;21.00
1361;DHT22;674;45.552;-122.600;2023-02-22T00:09:37;5.70;20.20
1361;DHT22;674;45.552;-122.600;2023-02-22T00:12:06;5.90;46.40
1361;DHT22;674;45.552;-122.600;2023-02-22T00:14:37;5.50;18.60
1361;DHT22;674;45.552;-122.600;2023-02-22T00:17:07;5.80;37.00
1361;DHT22;674;45.552;-122.600;2023-02-22T00:19:35;5.90;30.10
1361;DHT22;674;45.552;-122.600;2023-02-22T00:22:04;5.80;33.60
1361;DHT22;674;45.552;-122.600;2023-02-22T00:24:32;5.90;39.50
1361;DHT22;674;45.552;-122.600;2023-02-22T00:27:03;5.70;30.20
1361;DHT22;674;45.552;-122.600;2023-02-22T00:29:31;6.00;41.30
1361;DHT22;674;45.552;-122.600;2023-02-22T00:32:01;5.60;17.20
1361;DHT22;674;45.552;-122.600;2023-02-22T00:34:29;5.60;43.30
1361;DHT22;674;45.552;-122.600;2023-02-22T00:36:58;5.60;48.20
1361;DHT22;674;45.552;-122.600;2023-02-22T00:39:30;5.70;42.70
1361;DHT22;674;45.552;-122.600;2023-02-22T00:41:58;5.80;43.40
1361;DHT22;674;45.552;-122.600;2023-02-22T00:44:27;5.70;5.00
1361;DHT22;674;45.552;-122.600;2023-02-22T00:46:55;5.60;6.60
1361;DHT22;674;45.552;-122.600;2023-02-22T00:49:24;5.90;9.70
1361;DHT22;674;45.552;-122.600;2023-02-22T00:51:53;5.70;9.60
1361;DHT22;674;45.552;-122.600;2023-02-22T00:54:21;5.40;9.70
1361;DHT22;674;45.552;-122.600;2023-02-22T00:56:50;5.50;5.30
1361;DHT22;674;45.552;-122.600;2023-02-22T00:59:18;5.60;6.90
1361;DHT22;674;45.552;-122.600;2023-02-22T01:01:47;5.60;7.40
1361;DHT22;674;45.552;-122.600;2023-02-22T01:04:15;5.90;1.00
1361;DHT22;674;45.552;-122.600;2023-02-22T01:06:45;5.80;1.00
1361;DHT22;674;45.552;-122.600;2023-02-22T01:09:13;5.90;1.00
1361;DHT22;674;45.552;-122.600;2023-02-22T01:11:42;5.70;1.00
1361;DHT22;674;45.552;-122.600;2023-02-22T01:14:12;5.50;1.00
1361;DHT22;674;45.552;-122.600;2023-02-22T01:16:40;5.60;1.00
1361;DHT22;674;45.552;-122.600;2023-02-22T01:19:09;5.30;8.60
1361;DHT22;674;45.552;-122.600;2023-02-22T01:21:39;5.30;20.40
1361;DHT22;674;45.552;-122.600;2023-02-22T01:24:08;4.70;42.90
1361;DHT22;674;45.552;-122.600;2023-02-22T01:26:36;4.80;64.90
1361;DHT22;674;45.552;-122.600;2023-02-22T01:29:05;5.00;67.20
1361;DHT22;674;45.552;-122.600;2023-02-22T01:31:35;4.60;73.80
1361;DHT22;674;45.552;-122.600;2023-02-22T01:34:04;4.50;76.20
1361;DHT22;674;45.552;-122.600;2023-02-22T01:36:32;4.40;89.30
1361;DHT22;674;45.552;-122.600;2023-02-22T01:39:01;4.50;99.40
1361;DHT22;674;45.552;-122.600;2023-02-22T01:41:29;4.10;99.90
1361;DHT22;674;45.552;-122.600;2023-02-22T01:43:57;4.00;99.90
1361;DHT22;674;45.552;-122.600;2023-02-22T01:46:26;4.30;99.90
1361;DHT22;674;45.552;-122.600;2023-02-22T01:48:59;4.10;99.90
1361;DHT22;674;45.552;-122.600;2023-02-22T01:51:36;4.10;99.90
1361;DHT22;674;45.552;-122.600;2023-02-22T01:56:53;4.10;99.90
1361;DHT22;674;45.552;-122.600;2023-02-22T01:59:23;4.10;99.90
1361;DHT22;674;45.552;-122.600;2023-02-22T02:01:52;4.10;99.90
1361;DHT22;674;45.552;-122.600;2023-02-22T02:04:22;4.20;99.90
1361;DHT22;674;45.552;-122.600;2023-02-22T02:06:53;4.30;99.90
1361;DHT22;674;45.552;-122.600;2023-02-22T02:12:09;4.70;99.90
1361;DHT22;674;45.552;-122.600;2023-02-22T02:14:39;4.50;99.90
1361;DHT22;674;45.552;-122.600;2023-02-22T02:17:13;4.60;99.90
1361;DHT22;674;45.552;-122.600;2023-02-22T02:20:08;4.80;99.90
1361;DHT22;674;45.552;-122.600;2023-02-22T02:32:23;4.40;99.90
1361;DHT22;674;45.552;-122.600;2023-02-22T02:43:08;4.70;99.90
1361;DHT22;674;45.552;-122.600;2023-02-22T02:45:48;4.90;99.90
1361;DHT22;674;45.552;-122.600;2023-02-22T02:48:22;4.70;99.90
1361;DHT22;674;45.552;-122.600;2023-02-22T02:50:55;5.00;99.90
1361;DHT22;674;45.552;-122.600;2023-02-22T02:53:31;5.00;99.90
1361;DHT22;674;45.552;-122.600;2023-02-22T02:56:00;4.80;99.90
1361;DHT22;674;45.552;-122.600;2023-02-22T02:58:28;4.80;99.90
1361;DHT22;674;45.552;-122.600;2023-02-22T03:01:00;4.90;99.90
1361;DHT22;674;45.552;-122.600;2023-02-22T03:11:28;5.30;92.70
1361;DHT22;674;45.552;-122.600;2023-02-22T03:14:15;5.00;92.70
1361;DHT22;674;45.552;-122.600;2023-02-22T03:16:59;4.80;90.40
1361;DHT22;674;45.552;-122.600;2023-02-22T03:19:34;5.00;91.70
1361;DHT22;674;45.552;-122.600;2023-02-22T03:22:32;5.10;90.70
1361;DHT22;674;45.552;-122.600;2023-02-22T03:25:07;5.20;84.90
1361;DHT22;674;45.552;-122.600;2023-02-22T03:27:44;5.10;86.50
1361;DHT22;674;45.552;-122.600;2023-02-22T03:30:27;4.80;87.40
1361;DHT22;674;45.552;-122.600;2023-02-22T03:33:03;4.70;86.10
1361;DHT22;674;45.552;-122.600;2023-02-22T03:35:43;4.90;85.80
1361;DHT22;674;45.552;-122.600;2023-02-22T03:38:16;4.90;78.10
1361;DHT22;674;45.552;-122.600;2023-02-22T03:40:48;4.70;85.00
1361;DHT22;674;45.552;-122.600;2023-02-22T03:43:24;4.70;79.70
1361;DHT22;674;45.552;-122.600;2023-02-22T03:45:54;4.70;82.90
1361;DHT22;674;45.552;-122.600;2023-02-22T03:51:14;4.60;73.10
1361;DHT22;674;45.552;-122.600;2023-02-22T03:53:43;4.80;75.40
1361;DHT22;674;45.552;-122.600;2023-02-22T03:56:16;4.40;81.10
1361;DHT22;674;45.552;-122.600;2023-02-22T03:58:47;4.70;78.10
1361;DHT22;674;45.552;-122.600;2023-02-22T04:01:17;4.60;80.50
1361;DHT22;674;45.552;-122.600;2023-02-22T04:03:46;4.60;78.30
1361;DHT22;674;45.552;-122.600;2023-02-22T04:06:15;4.30;83.00
1361;DHT22;674;45.552;-122.600;2023-02-22T04:08:43;4.60;84.50
1361;DHT22;674;45.552;-122.600;2023-02-22T04:11:12;4.40;81.20
1361;DHT22;674;45.552;-122.600;2023-02-22T04:13:41;4.50;77.90
1361;DHT22;674;45.552;-122.600;2023-02-22T04:16:09;4.40;73.20
1361;DHT22;674;45.552;-122.600;2023-02-22T04:18:38;4.50;68.60
1361;DHT22;674;45.552;-122.600;2023-02-22T04:21:06;4.40;65.50
1361;DHT22;674;45.552;-122.600;2023-02-22T04:23:36;4.50;61.50
1361;DHT22;674;45.552;-122.600;2023-02-22T04:26:04;4.40;63.30
1361;DHT22;674;45.552;-122.600;2023-02-22T04:28:32;4.30;63.60
1361;DHT22;674;45.552;-122.600;2023-02-22T04:31:01;4.10;70.20
1361;DHT22;674;45.552;-122.600;2023-02-22T04:33:30;4.10;82.60
1361;DHT22;674;45.552;-122.600;2023-02-22T04:35:58;4.10;86.50
1361;DHT22;674;45.552;-122.600;2023-02-22T04:38:27;4.20;91.40
1361;DHT22;674;45.552;-122.600;2023-02-22T04:40:55;4.30;94.50
1361;DHT22;674;45.552;-122.600;2023-02-22T04:43:23;4.10;96.40
1361;DHT22;674;45.552;-122.600;2023-02-22T04:45:52;4.10;98.60
1361;DHT22;674;45.552;-122.600;2023-02-22T04:48:20;4.10;99.90
1361;DHT22;674;45.552;-122.600;2023-02-22T04:50:49;4.10;99.50
1361;DHT22;674;45.552;-122.600;2023-02-22T04:53:18;4.10;98.30
1361;DHT22;674;45.552;-122.600;2023-02-22T04:55:47;4.10;99.00
1361;DHT22;674;45.552;-122.600;2023-02-22T04:58:15;4.10;99.90
1361;DHT22;674;45.552;-122.600;2023-02-22T05:00:44;4.10;93.00
1361;DHT22;674;45.552;-122.600;2023-02-22T05:03:12;3.90;92.60
1361;DHT22;674;45.552;-122.600;2023-02-22T05:05:41;3.90;96.20
1361;DHT22;674;45.552;-122.600;2023-02-22T05:08:09;3.80;96.10
1361;DHT22;674;45.552;-122.600;2023-02-22T05:10:38;3.60;95.40
1361;DHT22;674;45.552;-122.600;2023-02-22T05:13:06;3.50;97.60
1361;DHT22;674;45.552;-122.600;2023-02-22T05:15:36;3.60;99.20
1361;DHT22;674;45.552;-122.600;2023-02-22T05:18:04;3.40;99.90
1361;DHT22;674;45.552;-122.600;2023-02-22T05:20:34;3.20;99.90
1361;DHT22;674;45.552;-122.600;2023-02-22T05:23:03;3.50;99.90
1361;DHT22;674;45.552;-122.600;2023-02-22T05:25:32;3.30;99.90
1361;DHT22;674;45.552;-122.600;2023-02-22T05:28:12;3.20;99.90
1361;DHT22;674;45.552;-122.600;2023-02-22T05:30:42;3.30;99.90
1361;DHT22;674;45.552;-122.600;2023-02-22T05:33:10;3.30;99.90
1361;DHT22;674;45.552;-122.600;2023-02-22T05:35:39;3.30;99.90
1361;DHT22;674;45.552;-122.600;2023-02-22T05:38:09;3.30;99.90
1361;DHT22;674;45.552;-122.600;2023-02-22T05:40:42;3.30;99.90
1361;DHT22;674;45.552;-122.600;2023-02-22T05:43:10;3.20;99.90
1361;DHT22;674;45.552;-122.600;2023-02-22T05:45:38;3.00;99.90
1361;DHT22;674;45.552;-122.600;2023-02-22T05:48:07;3.30;99.90
1361;DHT22;674;45.552;-122.600;2023-02-22T05:50:36;3.10;99.90
1361;DHT22;674;45.552;-122.600;2023-02-22T05:53:04;3.10;99.90
1361;DHT22;674;45.552;-122.600;2023-02-22T05:55:32;3.00;99.90
1361;DHT22;674;45.552;-122.600;2023-02-22T05:58:01;3.10;99.90
1361;DHT22;674;45.552;-122.600;2023-02-22T06:00:32;3.10;99.90
1361;DHT22;674;45.552;-122.600;2023-02-22T06:03:03;3.00;99.90
1361;DHT22;674;45.552;-122.600;2023-02-22T06:05:32;3.00;99.90
1361;DHT22;674;45.552;-122.600;2023-02-22T06:08:02;3.00;99.90
1361;DHT22;674;45.552;-122.600;2023-02-22T06:10:30;2.90;99.90
1361;DHT22;674;45.552;-122.600;2023-02-22T06:13:00;2.80;99.90
1361;DHT22;674;45.552;-122.600;2023-02-22T06:15:29;3.10;99.90
1361;DHT22;674;45.552;-122.600;2023-02-22T06:17:58;3.00;99.90
1361;DHT22;674;45.552;-122.600;2023-02-22T06:20:29;2.90;99.90
1361;DHT22;674;45.552;-122.600;2023-02-22T06:23:00;3.00;99.90
1361;DHT22;674;45.552;-122.600;2023-02-22T06:25:30;2.90;99.90
1361;DHT22;674;45.552;-122.600;2023-02-22T06:28:00;3.10;99.90
1361;DHT22;674;45.552;-122.600;2023-02-22T06:30:29;3.00;99.90
1361;DHT22;674;45.552;-122.600;2023-02-22T06:32:57;3.00;99.90
1361;DHT22;674;45.552;-122.600;2023-02-22T06:35:26;3.10;99.90
1361;DHT22;674;45.552;-122.600;2023-02-22T06:37:54;3.10;99.90
1361;DHT22;674;45.552;-122.600;2023-02-22T06:40:23;3.30;99.90
1361;DHT22;674;45.552;-122.600;2023-02-22T06:42:57;3.20;99.90
1361;DHT22;674;45.552;-122.600;2023-02-22T06:45:26;3.30;99.90
1361;DHT22;674;45.552;-122.600;2023-02-22T06:47:55;3.40;99.90
1361;DHT22;674;45.552;-122.600;2023-02-22T06:50:28;3.10;99.90
1361;DHT22;674;45.552;-122.600;2023-02-22T06:52:58;3.20;99.90
1361;DHT22;674;45.552;-122.600;2023-02-22T06:55:29;3.50;99.90
1361;DHT22;674;45.552;-122.600;2023-02-22T06:57:59;3.20;99.90
1361;DHT22;674;45.552;-122.600;2023-02-22T07:00:29;3.00;99.90
1361;DHT22;674;45.552;-122.600;2023-02-22T07:02:58;3.00;99.90
1361;DHT22;674;45.552;-122.600;2023-02-22T07:05:27;3.00;99.90
1361;DHT22;674;45.552;-122.600;2023-02-22T07:08:04;3.10;99.90
1361;DHT22;674;45.552;-122.600;2023-02-22T07:10:34;3.10;99.90
1361;DHT22;674;45.552;-122.600;2023-02-22T07:13:04;3.00;99.90
1361;DHT22;674;45.552;-122.600;2023-02-22T07:15:33;3.20;99.90
1361;DHT22;674;45.552;-122.600;2023-02-22T07:18:02;3.00;99.90
1361;DHT22;674;45.552;-122.600;2023-02-22T07:20:31;3.00;99.90
1361;DHT22;674;45.552;-122.600;2023-02-22T07:22:59;3.10;99.90
1361;DHT22;674;45.552;-122.600;2023-02-22T07:25:28;3.00;99.90
1361;DHT22;674;45.552;-122.600;2023-02-22T07:27:56;3.00;99.90
1361;DHT22;674;45.552;-122.600;2023-02-22T07:30:28;3.10;99.90
1361;DHT22;674;45.552;-122.600;2023-02-22T07:33:03;2.90;99.90
1361;DHT22;674;45.552;-122.600;2023-02-22T07:35:37;3.10;99.90
1361;DHT22;674;45.552;-122.600;2023-02-22T07:38:07;3.00;99.90
1361;DHT22;674;45.552;-122.600;2023-02-22T07:40:36;3.10;99.90
1361;DHT22;674;45.552;-122.600;2023-02-22T07:43:17;3.00;99.90
1361;DHT22;674;45.552;-122.600;2023-02-22T07:45:47;2.90;99.90
1361;DHT22;674;45.552;-122.600;2023-02-22T07:48:17;2.80;99.90
1361;DHT22;674;45.552;-122.600;2023-02-22T07:50:46;2.90;99.90
1361;DHT22;674;45.552;-122.600;2023-02-22T07:53:20;3.00;99.90
1361;DHT22;674;45.552;-122.600;2023-02-22T07:55:49;3.00;99.90
1361;DHT22;674;45.552;-122.600;2023-02-22T07:58:21;3.00;99.90
1361;DHT22;674;45.552;-122.600;2023-02-22T08:00:50;3.00;99.90
1361;DHT22;674;45.552;-122.600;2023-02-22T08:03:21;3.10;99.90
1361;DHT22;674;45.552;-122.600;2023-02-22T08:05:52;2.90;99.90
1361;DHT22;674;45.552;-122.600;2023-02-22T08:08:21;3.10;99.90
1361;DHT22;674;45.552;-122.600;2023-02-22T08:10:50;3.00;99.90
1361;DHT22;674;45.552;-122.600;2023-02-22T08:13:19;2.90;99.90
1361;DHT22;674;45.552;-122.600;2023-02-22T08:15:51;2.90;99.90
1361;DHT22;674;45.552;-122.600;2023-02-22T08:18:22;2.90;99.90
1361;DHT22;674;45.552;-122.600;2023-02-22T08:20:52;3.00;99.90
1361;DHT22;674;45.552;-122.600;2023-02-22T08:23:22;3.00;99.90
1361;DHT22;674;45.552;-122.600;2023-02-22T08:25:52;3.10;99.90
1361;DHT22;674;45.552;-122.600;2023-02-22T08:28:23;2.80;99.90
1361;DHT22;674;45.552;-122.600;2023-02-22T08:30:52;3.00;99.90
1361;DHT22;674;45.552;-122.600;2023-02-22T08:33:21;2.80;99.90
1361;DHT22;674;45.552;-122.600;2023-02-22T08:35:50;2.70;99.90
1361;DHT22;674;45.552;-122.600;2023-02-22T08:38:21;3.00;99.90
1361;DHT22;674;45.552;-122.600;2023-02-22T08:40:50;2.90;99.90
1361;DHT22;674;45.552;-122.600;2023-02-22T08:43:19;2.90;99.90
1361;DHT22;674;45.552;-122.600;2023-02-22T08:45:49;2.60;99.90
1361;DHT22;674;45.552;-122.600;2023-02-22T08:48:19;2.80;99.90
1361;DHT22;674;45.552;-122.600;2023-02-22T08:50:48;3.00;99.90
1361;DHT22;674;45.552;-122.600;2023-02-22T08:53:17;3.20;99.90
1361;DHT22;674;45.552;-122.600;2023-02-22T08:55:45;3.20;99.90
1361;DHT22;674;45.552;-122.600;2023-02-22T08:58:14;3.00;99.90
1361;DHT22;674;45.552;-122.600;2023-02-22T09:00:42;3.00;99.90
1361;DHT22;674;45.552;-122.600;2023-02-22T09:03:13;3.00;99.90
1361;DHT22;674;45.552;-122.600;2023-02-22T09:05:43;3.00;99.90
1361;DHT22;674;45.552;-122.600;2023-02-22T09:08:11;3.10;99.90
1361;DHT22;674;45.552;-122.600;2023-02-22T09:10:40;3.10;99.90
1361;DHT22;674;45.552;-122.600;2023-02-22T09:13:08;3.00;99.90
1361;DHT22;674;45.552;-122.600;2023-02-22T09:15:37;3.10;99.90
1361;DHT22;674;45.552;-122.600;2023-02-22T09:18:09;3.00;99.90
1361;DHT22;674;45.552;-122.600;2023-02-22T09:20:37;3.00;99.90
1361;DHT22;674;45.552;-122.600;2023-02-22T09:23:06;3.30;99.90
1361;DHT22;674;45.552;-122.600;2023-02-22T09:25:36;3.00;99.90
1361;DHT22;674;45.552;-122.600;2023-02-22T09:28:08;3.10;99.90
1361;DHT22;674;45.552;-122.600;2023-02-22T09:30:36;3.10;99.90
1361;DHT22;674;45.552;-122.600;2023-02-22T09:33:11;3.30;99.90
1361;DHT22;674;45.552;-122.600;2023-02-22T09:35:41;2.90;99.90
1361;DHT22;674;45.552;-122.600;2023-02-22T09:38:20;2.90;99.90
1361;DHT22;674;45.552;-122.600;2023-02-22T09:40:57;2.80;99.90
1361;DHT22;674;45.552;-122.600;2023-02-22T09:46:25;2.80;99.90
1361;DHT22;674;45.552;-122.600;2023-02-22T09:51:49;2.70;99.90
1361;DHT22;674;45.552;-122.600;2023-02-22T09:57:00;2.70;99.90
1361;DHT22;674;45.552;-122.600;2023-02-22T09:59:40;2.50;99.90
1361;DHT22;674;45.552;-122.600;2023-02-22T10:02:32;2.50;99.90
1361;DHT22;674;45.552;-122.600;2023-02-22T10:05:12;2.60;99.90
1361;DHT22;674;45.552;-122.600;2023-02-22T10:08:00;2.70;99.90
1361;DHT22;674;45.552;-122.600;2023-02-22T10:10:35;2.70;99.90
1361;DHT22;674;45.552;-122.600;2023-02-22T10:13:28;2.50;99.90
1361;DHT22;674;45.552;-122.600;2023-02-22T10:16:09;2.70;99.90
1361;DHT22;674;45.552;-122.600;2023-02-22T10:28:34;2.50;99.90
1361;DHT22;674;45.552;-122.600;2023-02-22T10:30:49;2.50;99.90
1361;DHT22;674;45.552;-122.600;2023-02-22T10:33:35;2.50;99.90
1361;DHT22;674;45.552;-122.600;2023-02-22T10:36:05;2.70;99.90
1361;DHT22;674;45.552;-122.600;2023-02-22T10:38:47;2.70;99.90
1361;DHT22;674;45.552;-122.600;2023-02-22T10:41:32;2.50;99.90
1361;DHT22;674;45.552;-122.600;2023-02-22T10:44:01;2.50;99.90
1361;DHT22;674;45.552;-122.600;2023-02-22T10:46:31;2.70;99.90
1361;DHT22;674;45.552;-122.600;2023-02-22T10:49:03;2.70;99.90
1361;DHT22;674;45.552;-122.600;2023-02-22T10:51:34;2.70;99.90
1361;DHT22;674;45.552;-122.600;2023-02-22T10:54:35;2.80;99.90
1361;DHT22;674;45.552;-122.600;2023-02-22T10:57:06;2.70;99.90
1361;DHT22;674;45.552;-122.600;2023-02-22T10:59:37;2.60;99.90
1361;DHT22;674;45.552;-122.600;2023-02-22T11:02:28;2.70;99.90
1361;DHT22;674;45.552;-122.600;2023-02-22T11:05:00;2.70;99.90
1361;DHT22;674;45.552;-122.600;2023-02-22T11:07:34;2.50;99.90
1361;DHT22;674;45.552;-122.600;2023-02-22T11:10:05;2.80;99.90
1361;DHT22;674;45.552;-122.600;2023-02-22T11:12:38;2.70;99.90
1361;DHT22;674;45.552;-122.600;2023-02-22T11:17:51;2.70;99.90
1361;DHT22;674;45.552;-122.600;2023-02-22T11:20:27;2.70;99.90
1361;DHT22;674;45.552;-122.600;2023-02-22T11:22:57;2.70;99.90
1361;DHT22;674;45.552;-122.600;2023-02-22T11:25:39;2.70;99.90
1361;DHT22;674;45.552;-122.600;2023-02-22T11:28:21;2.70;99.90
1361;DHT22;674;45.552;-122.600;2023-02-22T11:31:19;2.60;99.90
1361;DHT22;674;45.552;-122.600;2023-02-22T11:34:00;2.80;99.90
1361;DHT22;674;45.552;-122.600;2023-02-22T11:36:33;2.70;99.90
1361;DHT22;674;45.552;-122.600;2023-02-22T11:39:28;2.50;99.90
1361;DHT22;674;45.552;-122.600;2023-02-22T11:41:55;2.70;99.90
1361;DHT22;674;45.552;-122.600;2023-02-22T11:44:29;3.00;99.90
1361;DHT22;674;45.552;-122.600;2023-02-22T11:47:00;2.70;99.90
1361;DHT22;674;45.552;-122.600;2023-02-22T11:49:35;2.80;99.90
1361;DHT22;674;45.552;-122.600;2023-02-22T11:57:56;2.70;99.90
1361;DHT22;674;45.552;-122.600;2023-02-22T12:03:29;2.80;99.90
1361;DHT22;674;45.552;-122.600;2023-02-22T12:05:57;2.70;99.90
1361;DHT22;674;45.552;-122.600;2023-02-22T12:16:57;2.80;99.90
1361;DHT22;674;45.552;-122.600;2023-02-22T12:20:42;2.80;99.90
1361;DHT22;674;45.552;-122.600;2023-02-22T12:22:46;2.70;99.90
1361;DHT22;674;45.552;-122.600;2023-02-22T12:25:24;2.40;99.90
1361;DHT22;674;45.552;-122.600;2023-02-22T12:28:06;2.50;99.90
1361;DHT22;674;45.552;-122.600;2023-02-22T12:31:24;2.60;99.90
1361;DHT22;674;45.552;-122.600;2023-02-22T12:34:43;2.40;99.90
1361;DHT22;674;45.552;-122.600;2023-02-22T12:37:00;2.30;99.90
1361;DHT22;674;45.552;-122.600;2023-02-22T12:45:39;2.20;99.90
1361;DHT22;674;45.552;-122.600;2023-02-22T12:48:43;2.30;99.90
1361;DHT22;674;45.552;-122.600;2023-02-22T12:56:58;2.00;99.90
1361;DHT22;674;45.552;-122.600;2023-02-22T12:59:36;2.30;99.90
1361;DHT22;674;45.552;-122.600;2023-02-22T13:04:53;2.20;99.90
1361;DHT22;674;45.552;-122.600;2023-02-22T13:10:31;2.10;99.90
1361;DHT22;674;45.552;-122.600;2023-02-22T13:18:48;2.00;99.90
1361;DHT22;674;45.552;-122.600;2023-02-22T13:24:59;2.10;99.90
1361;DHT22;674;45.552;-122.600;2023-02-22T13:27:19;2.20;99.90
1361;DHT22;674;45.552;-122.600;2023-02-22T13:29:55;2.30;99.90
1361;DHT22;674;45.552;-122.600;2023-02-22T13:41:45;2.20;99.90
1361;DHT22;674;45.552;-122.600;2023-02-22T13:45:19;2.20;99.90
1361;DHT22;674;45.552;-122.600;2023-02-22T13:47:25;2.20;99.90
1361;DHT22;674;45.552;-122.600;2023-02-22T13:52:41;2.50;99.90
1361;DHT22;674;45.552;-122.600;2023-02-22T13:55:23;2.10;99.90
1361;DHT22;674;45.552;-122.600;2023-02-22T13:58:06;2.20;99.90
1361;DHT22;674;45.552;-122.600;2023-02-22T14:00:52;2.10;99.90
1361;DHT22;674;45.552;-122.600;2023-02-22T14:06:04;2.30;99.90
1361;DHT22;674;45.552;-122.600;2023-02-22T14:11:06;2.50;99.90
1361;DHT22;674;45.552;-122.600;2023-02-22T14:16:28;2.50;99.90
1361;DHT22;674;45.552;-122.600;2023-02-22T14:19:03;2.50;99.90
1361;DHT22;674;45.552;-122.600;2023-02-22T14:21:33;2.50;99.90
1361;DHT22;674;45.552;-122.600;2023-02-22T14:24:13;2.10;99.90
1361;DHT22;674;45.552;-122.600;2023-02-22T14:26:55;2.20;99.90
1361;DHT22;674;45.552;-122.600;2023-02-22T14:29:24;2.40;99.90
1361;DHT22;674;45.552;-122.600;2023-02-22T14:34:54;2.50;99.90
1361;DHT22;674;45.552;-122.600;2023-02-22T14:37:32;2.50;99.90
1361;DHT22;674;45.552;-122.600;2023-02-22T14:42:47;2.10;99.90
1361;DHT22;674;45.552;-122.600;2023-02-22T14:45:26;2.30;99.90
1361;DHT22;674;45.552;-122.600;2023-02-22T14:48:16;2.10;99.90
1361;DHT22;674;45.552;-122.600;2023-02-22T14:51:03;2.40;99.90
1361;DHT22;674;45.552;-122.600;2023-02-22T14:53:52;2.30;99.90
1361;DHT22;674;45.552;-122.600;2023-02-22T14:56:31;2.40;99.90
1361;DHT22;674;45.552;-122.600;2023-02-22T14:59:22;2.00;99.90
1361;DHT22;674;45.552;-122.600;2023-02-22T15:02:10;2.10;99.90
1361;DHT22;674;45.552;-122.600;2023-02-22T15:04:39;2.30;99.90
1361;DHT22;674;45.552;-122.600;2023-02-22T15:10:23;2.00;99.90
1361;DHT22;674;45.552;-122.600;2023-02-22T15:13:01;2.10;99.90
1361;DHT22;674;45.552;-122.600;2023-02-22T15:15:59;2.20;99.90
1361;DHT22;674;45.552;-122.600;2023-02-22T15:18:31;2.30;99.90
1361;DHT22;674;45.552;-122.600;2023-02-22T15:21:10;2.10;99.90
1361;DHT22;674;45.552;-122.600;2023-02-22T15:23:47;2.50;99.90
1361;DHT22;674;45.552;-122.600;2023-02-22T15:26:38;2.50;99.90
1361;DHT22;674;45.552;-122.600;2023-02-22T15:29:35;2.30;99.90
1361;DHT22;674;45.552;-122.600;2023-02-22T15:32:34;2.20;99.90
1361;DHT22;674;45.552;-122.600;2023-02-22T15:40:39;2.10;99.90
1361;DHT22;674;45.552;-122.600;2023-02-22T15:43:21;2.40;99.90
1361;DHT22;674;45.552;-122.600;2023-02-22T15:45:55;2.20;99.90
1361;DHT22;674;45.552;-122.600;2023-02-22T15:48:25;2.40;99.90
1361;DHT22;674;45.552;-122.600;2023-02-22T15:51:06;2.50;99.90
1361;DHT22;674;45.552;-122.600;2023-02-22T15:53:45;2.30;99.90
1361;DHT22;674;45.552;-122.600;2023-02-22T15:56:33;2.40;99.90
1361;DHT22;674;45.552;-122.600;2023-02-22T15:59:12;2.40;99.90
1361;DHT22;674;45.552;-122.600;2023-02-22T16:01:43;2.40;99.90
1361;DHT22;674;45.552;-122.600;2023-02-22T16:04:18;2.40;99.90
1361;DHT22;674;45.552;-122.600;2023-02-22T16:06:49;2.50;99.90
1361;DHT22;674;45.552;-122.600;2023-02-22T16:09:21;2.50;99.90
1361;DHT22;674;45.552;-122.600;2023-02-22T16:14:47;2.60;99.90
1361;DHT22;674;45.552;-122.600;2023-02-22T16:17:28;2.90;99.90
1361;DHT22;674;45.552;-122.600;2023-02-22T16:22:47;2.80;99.90
1361;DHT22;674;45.552;-122.600;2023-02-22T16:27:57;2.70;99.90
1361;DHT22;674;45.552;-122.600;2023-02-22T16:30:34;3.00;99.90
1361;DHT22;674;45.552;-122.600;2023-02-22T16:33:08;2.90;99.90
1361;DHT22;674;45.552;-122.600;2023-02-22T16:35:40;2.90;99.90
1361;DHT22;674;45.552;-122.600;2023-02-22T16:38:19;3.00;99.90
1361;DHT22;674;45.552;-122.600;2023-02-22T16:40:50;3.00;99.90
1361;DHT22;674;45.552;-122.600;2023-02-22T16:43:24;3.00;99.90
1361;DHT22;674;45.552;-122.600;2023-02-22T16:45:56;2.80;99.90
1361;DHT22;674;45.552;-122.600;2023-02-22T16:48:27;3.10;99.90
1361;DHT22;674;45.552;-122.600;2023-02-22T16:51:05;3.00;99.90
1361;DHT22;674;45.552;-122.600;2023-02-22T16:53:34;2.90;99.90
1361;DHT22;674;45.552;-122.600;2023-02-22T16:56:04;3.00;99.90
1361;DHT22;674;45.552;-122.600;2023-02-22T16:58:38;3.20;99.90
1361;DHT22;674;45.552;-122.600;2023-02-22T17:01:07;3.20;99.90
1361;DHT22;674;45.552;-122.600;2023-02-22T17:03:36;3.20;99.90
1361;DHT22;674;45.552;-122.600;2023-02-22T17:06:05;3.10;99.90
1361;DHT22;674;45.552;-122.600;2023-02-22T17:08:33;3.10;99.90
1361;DHT22;674;45.552;-122.600;2023-02-22T17:11:02;3.10;99.90
1361;DHT22;674;45.552;-122.600;2023-02-22T17:13:31;3.10;99.90
1361;DHT22;674;45.552;-122.600;2023-02-22T17:15:59;3.00;99.90
1361;DHT22;674;45.552;-122.600;2023-02-22T17:18:28;3.00;99.90
1361;DHT22;674;45.552;-122.600;2023-02-22T17:21:01;3.00;99.90
1361;DHT22;674;45.552;-122.600;2023-02-22T17:23:30;2.80;99.90
1361;DHT22;674;45.552;-122.600;2023-02-22T17:26:02;2.80;99.90
1361;DHT22;674;45.552;-122.600;2023-02-22T17:28:30;2.90;99.90
1361;DHT22;674;45.552;-122.600;2023-02-22T17:30:59;2.60;99.90
1361;DHT22;674;45.552;-122.600;2023-02-22T17:33:31;2.90;99.90
1361;DHT22;674;45.552;-122.600;2023-02-22T17:36:01;2.70;99.90
1361;DHT22;674;45.552;-122.600;2023-02-22T17:38:30;2.80;99.90
1361;DHT22;674;45.552;-122.600;2023-02-22T17:40:59;2.90;99.90
1361;DHT22;674;45.552;-122.600;2023-02-22T17:43:28;2.70;99.90
1361;DHT22;674;45.552;-122.600;2023-02-22T17:45:56;2.60;99.90
1361;DHT22;674;45.552;-122.600;2023-02-22T17:48:25;3.00;99.90
1361;DHT22;674;45.552;-122.600;2023-02-22T17:50:54;2.70;99.90
1361;DHT22;674;45.552;-122.600;2023-02-22T17:53:22;2.70;99.90
1361;DHT22;674;45.552;-122.600;2023-02-22T17:55:52;2.70;99.90
1361;DHT22;674;45.552;-122.600;2023-02-22T17:58:20;2.50;99.90
1361;DHT22;674;45.552;-122.600;2023-02-22T18:00:50;2.30;99.90
1361;DHT22;674;45.552;-122.600;2023-02-22T18:03:26;2.40;99.90
1361;DHT22;674;45.552;-122.600;2023-02-22T18:05:58;2.20;99.90
1361;DHT22;674;45.552;-122.600;2023-02-22T18:08:28;2.10;99.90
1361;DHT22;674;45.552;-122.600;2023-02-22T18:10:56;2.00;99.90
1361;DHT22;674;45.552;-122.600;2023-02-22T18:13:26;1.80;99.90
1361;DHT22;674;45.552;-122.600;2023-02-22T18:15:58;2.00;99.90
1361;DHT22;674;45.552;-122.600;2023-02-22T18:18:27;1.90;99.90
1361;DHT22;674;45.552;-122.600;2023-02-22T18:20:55;2.00;99.90
1361;DHT22;674;45.552;-122.600;2023-02-22T18:23:28;2.00;99.90
1361;DHT22;674;45.552;-122.600;2023-02-22T18:25:58;2.00;99.90
1361;DHT22;674;45.552;-122.600;2023-02-22T18:28:38;1.90;99.90
1361;DHT22;674;45.552;-122.600;2023-02-22T18:31:08;2.00;99.90
1361;DHT22;674;45.552;-122.600;2023-02-22T18:33:41;1.80;99.90
1361;DHT22;674;45.552;-122.600;2023-02-22T18:36:10;1.80;99.90
1361;DHT22;674;45.552;-122.600;2023-02-22T18:38:40;1.70;99.90
1361;DHT22;674;45.552;-122.600;2023-02-22T18:41:12;1.70;99.90
1361;DHT22;674;45.552;-122.600;2023-02-22T18:43:41;1.90;99.90
1361;DHT22;674;45.552;-122.600;2023-02-22T18:46:13;1.50;99.90